Time;durP1;ratioP1;P1;durP2;ratioP2;P2;SDS_P1;SDS_P2;PMS_P1;PMS_P2;Temp;Humidity;BMP_temperature;BMP_pressure;BME280_temperature;BME280_humidity;BME280_pressure;Samples;Min_cycle;Max_cycle;Signal;HPM_P1;HPM_P2
2023/08/30 00:00:41;;;;;;;9.52;7.10;;;14.80;99.90;;;;;;5009134;28;20053;-69
2023/08/30 00:03:07;;;;;;;10.55;7.00;;;14.80;99.90;;;;;;4989995;28;20547;-69
2023/08/30 00:05:33;;;;;;;11.60;6.68;;;14.80;99.90;;;;;;4988991;28;20123;-69
2023/08/30 00:07:58;;;;;;;9.15;6.32;;;14.80;99.90;;;;;;5001802;28;20220;-69
2023/08/30 00:10:24;;;;;;;9.70;6.95;;;14.80;99.90;;;;;;4988129;28;20046;-70
2023/08/30 00:12:53;;;;;;;9.45;5.65;;;14.80;99.90;;;;;;4991222;28;20042;-70
2023/08/30 00:15:18;;;;;;;14.38;7.40;;;14.80;99.90;;;;;;5002755;28;20488;-70
2023/08/30 00:17:45;;;;;;;13.38;7.28;;;14.80;99.90;;;;;;5002829;28;20158;-70
2023/08/30 00:20:11;;;;;;;8.90;6.60;;;14.80;99.90;;;;;;5004597;28;20045;-70
2023/08/30 00:22:37;;;;;;;10.32;6.20;;;14.80;99.90;;;;;;5000458;28;20124;-70
2023/08/30 00:25:03;;;;;;;9.63;6.53;;;14.80;99.90;;;;;;5006480;28;20539;-70
2023/08/30 00:27:29;;;;;;;10.68;6.57;;;14.80;99.90;;;;;;4971617;28;20136;-70
2023/08/30 00:29:54;;;;;;;10.20;6.35;;;14.70;99.90;;;;;;5004672;28;20049;-70
2023/08/30 00:32:21;;;;;;;10.00;7.10;;;14.70;99.90;;;;;;5007146;28;20393;-70
2023/08/30 00:34:50;;;;;;;9.70;6.80;;;14.70;99.90;;;;;;5010863;28;20588;-70
2023/08/30 00:37:15;;;;;;;8.43;6.00;;;14.70;99.90;;;;;;5003118;28;20045;-70
2023/08/30 00:39:41;;;;;;;11.25;6.22;;;14.70;99.90;;;;;;4986237;28;20042;-70
2023/08/30 00:42:07;;;;;;;10.23;6.72;;;14.70;99.90;;;;;;5005161;28;20042;-70
2023/08/30 00:44:33;;;;;;;9.43;6.38;;;14.70;99.90;;;;;;5009991;28;20044;-70
2023/08/30 00:47:03;;;;;;;9.15;6.28;;;14.70;99.90;;;;;;4988838;28;20062;-70
2023/08/30 00:49:30;;;;;;;10.27;6.45;;;14.60;99.90;;;;;;4987674;28;20052;-70
2023/08/30 00:52:01;;;;;;;9.48;6.38;;;14.60;99.90;;;;;;4989377;28;20054;-70
2023/08/30 00:54:27;;;;;;;10.23;6.50;;;14.60;99.90;;;;;;4990958;28;20587;-70
2023/08/30 00:56:54;;;;;;;8.73;5.72;;;14.60;99.90;;;;;;4988590;28;20046;-70
2023/08/30 00:59:21;;;;;;;9.35;6.22;;;14.60;99.90;;;;;;5005999;28;20042;-70
2023/08/30 01:01:50;;;;;;;9.98;6.03;;;14.60;99.90;;;;;;4991449;28;20073;-70
2023/08/30 01:04:16;;;;;;;11.45;6.50;;;14.60;99.90;;;;;;5004530;28;20461;-69
2023/08/30 01:06:42;;;;;;;8.82;6.18;;;14.60;99.90;;;;;;5010410;28;20045;-69
2023/08/30 01:09:09;;;;;;;9.40;6.05;;;14.60;99.90;;;;;;5003154;28;20050;-69
2023/08/30 01:12:00;;;;;;;11.07;6.15;;;14.60;99.90;;;;;;4986129;28;20120;-69
2023/08/30 01:14:43;;;;;;;10.60;6.55;;;14.60;99.90;;;;;;4987010;28;20120;-69
2023/08/30 01:17:11;;;;;;;9.75;6.50;;;14.60;99.90;;;;;;4988873;28;20073;-69
2023/08/30 01:19:57;;;;;;;12.20;6.05;;;14.60;99.90;;;;;;4987439;28;20166;-70
2023/08/30 01:22:45;;;;;;;10.75;6.32;;;14.60;99.90;;;;;;4975213;28;20042;-70
2023/08/30 01:25:19;;;;;;;;;;;14.50;99.90;;;;;;5008246;28;20046;-69
2023/08/30 01:27:47;;;;;;;8.60;5.60;;;14.50;99.90;;;;;;4974389;28;19917;-70
2023/08/30 01:30:13;;;;;;;8.93;6.10;;;14.50;99.90;;;;;;4988322;28;20196;-69
2023/08/30 01:32:40;;;;;;;9.20;6.30;;;14.50;99.90;;;;;;4990464;28;20080;-70
2023/08/30 01:35:07;;;;;;;9.50;5.78;;;14.50;99.90;;;;;;4988084;28;20085;-70
2023/08/30 01:37:34;;;;;;;8.43;5.60;;;14.40;99.90;;;;;;4986905;28;20547;-70
2023/08/30 01:40:03;;;;;;;9.30;5.88;;;14.40;99.90;;;;;;5006544;28;20046;-70
2023/08/30 01:42:29;;;;;;;10.52;5.53;;;14.40;99.90;;;;;;5005525;28;20579;-70
2023/08/30 01:44:58;;;;;;;10.18;5.95;;;14.40;99.90;;;;;;4990613;28;20080;-70
2023/08/30 01:47:26;;;;;;;10.43;6.65;;;14.30;99.90;;;;;;4988085;28;20057;-70
2023/08/30 01:49:53;;;;;;;10.98;6.28;;;14.30;99.90;;;;;;4988642;28;20064;-70
2023/08/30 01:52:20;;;;;;;11.95;6.00;;;14.30;99.90;;;;;;4988369;28;20073;-70
2023/08/30 01:54:46;;;;;;;;;;;14.20;99.90;;;;;;5006482;28;20041;-70
2023/08/30 01:57:14;;;;;;;8.40;5.32;;;14.20;99.90;;;;;;4988581;28;20341;-70
2023/08/30 01:59:40;;;;;;;8.55;6.25;;;14.20;99.90;;;;;;5008790;28;20084;-70
2023/08/30 02:02:06;;;;;;;10.40;5.85;;;14.20;99.90;;;;;;5006046;28;20042;-71
2023/08/30 02:04:37;;;;;;;8.65;5.97;;;14.10;99.90;;;;;;4990977;28;20332;-70
2023/08/30 02:07:04;;;;;;;9.50;5.78;;;14.10;99.90;;;;;;4993961;28;20063;-70
2023/08/30 02:09:42;;;;;;;8.52;5.35;;;14.10;99.90;;;;;;5007807;28;20180;-70
2023/08/30 02:12:14;;;;;;;8.23;5.85;;;14.00;99.90;;;;;;4994856;28;20046;-70
2023/08/30 02:14:45;;;;;;;9.90;5.93;;;14.10;99.90;;;;;;5015068;28;20117;-70
2023/08/30 02:17:15;;;;;;;10.40;6.35;;;14.00;99.90;;;;;;5015564;28;20046;-70
2023/08/30 02:19:45;;;;;;;11.77;6.35;;;14.00;99.90;;;;;;4993827;28;20033;-70
2023/08/30 02:22:12;;;;;;;8.95;6.00;;;14.00;99.90;;;;;;5009096;28;20045;-70
2023/08/30 02:24:38;;;;;;;8.75;5.93;;;13.90;99.90;;;;;;4995281;28;20243;-70
2023/08/30 02:27:04;;;;;;;12.70;6.65;;;13.90;99.90;;;;;;4991461;28;20050;-70
2023/08/30 02:29:29;;;;;;;12.93;6.10;;;13.90;99.90;;;;;;4993046;28;20382;-70
2023/08/30 02:31:55;;;;;;;9.27;5.78;;;13.80;99.90;;;;;;5008621;28;20073;-70
2023/08/30 02:34:21;;;;;;;8.43;5.47;;;13.80;99.90;;;;;;5009256;28;20049;-70
2023/08/30 02:36:47;;;;;;;9.10;5.63;;;13.80;99.90;;;;;;4989252;28;20535;-70
2023/08/30 02:39:15;;;;;;;10.65;6.30;;;13.80;99.90;;;;;;4991227;28;20049;-70
2023/08/30 02:41:43;;;;;;;11.40;5.70;;;13.70;99.90;;;;;;5006202;28;20136;-70
2023/08/30 02:44:11;;;;;;;12.35;6.30;;;13.70;99.90;;;;;;4992770;28;20049;-70
2023/08/30 02:46:41;;;;;;;9.13;6.25;;;13.70;99.90;;;;;;5008457;28;20272;-70
2023/08/30 02:49:07;;;;;;;11.48;6.40;;;13.60;99.90;;;;;;5011279;28;20056;-70
2023/08/30 02:51:33;;;;;;;10.10;5.95;;;13.60;99.90;;;;;;4991745;28;20045;-70
2023/08/30 02:53:58;;;;;;;10.82;6.50;;;13.60;99.90;;;;;;4995249;28;20050;-70
2023/08/30 02:56:25;;;;;;;9.70;6.00;;;13.50;99.90;;;;;;5008759;28;20146;-70
2023/08/30 02:58:53;;;;;;;15.98;6.60;;;13.50;99.90;;;;;;4995626;28;20407;-70
2023/08/30 03:01:19;;;;;;;9.82;5.80;;;13.50;99.90;;;;;;5005825;28;20039;-70
2023/08/30 03:03:46;;;;;;;9.98;5.72;;;13.40;99.90;;;;;;4992572;28;20046;-70
2023/08/30 03:06:13;;;;;;;9.25;5.60;;;13.40;99.90;;;;;;4988446;28;20052;-70
2023/08/30 03:08:39;;;;;;;10.25;6.22;;;13.40;99.90;;;;;;4986741;28;20053;-70
2023/08/30 03:11:13;;;;;;;10.32;6.53;;;13.40;99.90;;;;;;4987352;28;20470;-70
2023/08/30 03:13:38;;;;;;;9.88;6.18;;;13.40;99.90;;;;;;4972773;28;20061;-70
2023/08/30 03:16:17;;;;;;;11.45;5.97;;;13.40;99.90;;;;;;4986955;28;20091;-70
2023/08/30 03:18:43;;;;;;;11.77;6.53;;;13.40;99.90;;;;;;4988055;28;20594;-70
2023/08/30 03:21:10;;;;;;;9.10;6.03;;;13.40;99.90;;;;;;5007947;28;20045;-70
2023/08/30 03:23:36;;;;;;;11.30;6.22;;;13.40;99.90;;;;;;5009286;28;20049;-74
2023/08/30 03:26:12;;;;;;;12.15;6.57;;;13.40;99.90;;;;;;4988381;28;20128;-70
2023/08/30 03:28:39;;;;;;;10.33;6.27;;;13.40;99.90;;;;;;4988741;28;20124;-70
2023/08/30 03:31:31;;;;;;;10.35;6.07;;;13.40;99.90;;;;;;4991491;28;20061;-69
2023/08/30 03:33:56;;;;;;;10.50;6.30;;;13.40;99.90;;;;;;4986009;28;20543;-70
2023/08/30 03:36:22;;;;;;;13.45;7.22;;;13.40;99.90;;;;;;4997535;28;20085;-70
2023/08/30 03:38:48;;;;;;;11.07;6.78;;;13.40;99.90;;;;;;4995359;28;20133;-69
2023/08/30 03:41:14;;;;;;;9.20;6.40;;;13.50;99.90;;;;;;5010301;28;20033;-69
2023/08/30 03:43:40;;;;;;;10.55;6.13;;;13.50;99.90;;;;;;4992705;28;20053;-69
2023/08/30 03:46:06;;;;;;;12.50;6.90;;;13.50;99.90;;;;;;4976667;28;20060;-69
2023/08/30 03:48:32;;;;;;;13.07;6.72;;;13.50;99.90;;;;;;4999775;28;20049;-69
2023/08/30 03:50:58;;;;;;;12.23;6.72;;;13.50;99.90;;;;;;5011610;28;20041;-69
2023/08/30 03:53:24;;;;;;;9.73;6.63;;;13.50;99.90;;;;;;4996100;28;20103;-69
2023/08/30 03:55:53;;;;;;;;;;;13.50;99.90;;;;;;4986068;28;20313;-69
2023/08/30 03:58:19;;;;;;;10.10;6.60;;;13.50;99.90;;;;;;4991865;28;19917;-69
2023/08/30 04:00:45;;;;;;;10.43;6.38;;;13.50;99.90;;;;;;4980715;28;20049;-69
2023/08/30 04:03:14;;;;;;;8.82;5.97;;;13.50;99.90;;;;;;4990658;28;20495;-69
2023/08/30 04:05:40;;;;;;;13.38;6.82;;;13.60;99.90;;;;;;4989182;28;20050;-69
2023/08/30 04:08:06;;;;;;;9.82;6.15;;;13.60;99.90;;;;;;4990917;28;20451;-69
2023/08/30 04:10:39;;;;;;;12.88;6.57;;;13.60;99.90;;;;;;5007415;28;20061;-69
2023/08/30 04:13:06;;;;;;;11.68;6.53;;;13.60;99.90;;;;;;4990612;28;20240;-69
2023/08/30 04:15:36;;;;;;;10.38;6.57;;;13.70;99.90;;;;;;5007369;28;20049;-69
2023/08/30 04:18:02;;;;;;;9.88;6.00;;;13.70;99.90;;;;;;5010566;28;20034;-70
2023/08/30 04:20:27;;;;;;;;;;;13.70;99.90;;;;;;4994739;28;20878;-71
2023/08/30 04:22:55;;;;;;;11.60;6.13;;;13.70;99.90;;;;;;4991537;28;19972;-71
2023/08/30 04:25:20;;;;;;;11.60;6.03;;;13.70;99.90;;;;;;5008524;28;20080;-70
2023/08/30 04:27:46;;;;;;;12.50;6.88;;;13.70;99.90;;;;;;4990651;28;20073;-70
2023/08/30 04:30:12;;;;;;;10.27;6.53;;;13.80;99.90;;;;;;4991709;28;20058;-70
2023/08/30 04:32:38;;;;;;;11.27;7.30;;;13.80;99.90;;;;;;5005216;28;20046;-70
2023/08/30 04:35:04;;;;;;;10.25;6.80;;;13.80;99.90;;;;;;5002422;28;20038;-70
2023/08/30 04:37:33;;;;;;;12.90;7.60;;;13.80;99.90;;;;;;4994183;28;20121;-70
2023/08/30 04:40:03;;;;;;;12.73;7.18;;;13.80;99.90;;;;;;4992518;28;20179;-70
2023/08/30 04:42:29;;;;;;;10.93;6.68;;;13.80;99.90;;;;;;4995596;28;20038;-70
2023/08/30 04:44:55;;;;;;;12.10;6.78;;;13.80;99.90;;;;;;4992992;28;20049;-70
2023/08/30 04:47:22;;;;;;;11.13;7.13;;;13.90;99.90;;;;;;5006748;28;20096;-70
2023/08/30 04:49:51;;;;;;;;;;;13.90;99.90;;;;;;5010161;28;20092;-70
2023/08/30 04:52:17;;;;;;;12.73;7.07;;;13.90;99.90;;;;;;4991250;28;20308;-70
2023/08/30 04:54:45;;;;;;;12.95;6.95;;;13.90;99.90;;;;;;5011956;28;20136;-70
2023/08/30 04:57:14;;;;;;;11.57;6.78;;;13.90;99.90;;;;;;5006627;28;20045;-70
2023/08/30 04:59:40;;;;;;;14.02;7.00;;;13.90;99.90;;;;;;4993938;28;20041;-70
2023/08/30 05:02:06;;;;;;;;;;;13.90;99.90;;;;;;4992805;28;20045;-70
2023/08/30 05:04:31;;;;;;;9.93;5.85;;;13.90;99.90;;;;;;4991529;28;19922;-71
2023/08/30 05:07:00;;;;;;;9.73;6.32;;;13.90;99.90;;;;;;5007475;28;20384;-70
2023/08/30 05:09:26;;;;;;;11.75;5.97;;;13.90;99.90;;;;;;4985322;28;20048;-70
2023/08/30 05:11:53;;;;;;;10.95;6.40;;;14.00;99.90;;;;;;4991660;28;20057;-70
2023/08/30 05:14:19;;;;;;;11.05;6.40;;;14.00;99.90;;;;;;5009225;28;20124;-70
2023/08/30 05:16:45;;;;;;;13.30;6.78;;;14.00;99.90;;;;;;4991160;28;20041;-70
2023/08/30 05:19:11;;;;;;;11.77;6.63;;;14.00;99.90;;;;;;4974902;28;20050;-70
2023/08/30 05:21:36;;;;;;;13.55;7.25;;;14.00;99.90;;;;;;4991132;28;20491;-70
2023/08/30 05:24:02;;;;;;;12.70;6.60;;;14.00;99.90;;;;;;4981323;28;20181;-70
2023/08/30 05:26:28;;;;;;;10.95;6.30;;;14.00;99.90;;;;;;5001492;28;20652;-70
2023/08/30 05:28:54;;;;;;;11.57;6.83;;;14.00;99.90;;;;;;4993705;28;20081;-71
2023/08/30 05:31:22;;;;;;;9.77;6.50;;;14.00;99.90;;;;;;4990661;28;20698;-71
2023/08/30 05:33:48;;;;;;;11.13;6.50;;;14.10;99.90;;;;;;5005476;28;20077;-70
2023/08/30 05:36:13;;;;;;;12.43;6.22;;;14.10;99.90;;;;;;5005435;28;20715;-70
2023/08/30 05:38:39;;;;;;;9.97;6.57;;;14.10;99.90;;;;;;5007454;28;20061;-70
2023/08/30 05:41:05;;;;;;;10.75;6.20;;;14.10;99.90;;;;;;4987975;28;20649;-70
2023/08/30 05:43:31;;;;;;;10.67;6.67;;;14.10;99.90;;;;;;4991483;28;20048;-70
2023/08/30 05:46:01;;;;;;;10.65;6.28;;;14.10;99.90;;;;;;5006212;28;20350;-70
2023/08/30 05:48:27;;;;;;;12.57;6.18;;;14.10;99.90;;;;;;4987705;28;20602;-70
2023/08/30 05:50:53;;;;;;;14.95;7.35;;;14.20;99.90;;;;;;5007599;28;20368;-70
2023/08/30 05:53:19;;;;;;;10.43;6.30;;;14.20;99.90;;;;;;5000647;28;20049;-73
2023/08/30 05:55:44;;;;;;;10.70;6.53;;;14.20;99.90;;;;;;4987247;28;20486;-72
2023/08/30 05:58:10;;;;;;;18.35;6.63;;;14.20;99.90;;;;;;4980542;28;20045;-72
2023/08/30 06:00:35;;;;;;;12.82;6.38;;;14.20;99.90;;;;;;4991484;28;20037;-69
2023/08/30 06:03:02;;;;;;;11.90;6.50;;;14.20;99.90;;;;;;4991379;28;20038;-70
2023/08/30 06:05:28;;;;;;;11.35;6.05;;;14.30;99.90;;;;;;4991333;28;21059;-69
2023/08/30 06:07:54;;;;;;;10.05;5.60;;;14.30;99.90;;;;;;5008738;28;20053;-70
2023/08/30 06:10:20;;;;;;;14.05;6.55;;;14.30;99.90;;;;;;5009051;28;20115;-70
2023/08/30 06:12:45;;;;;;;10.38;6.35;;;14.30;99.90;;;;;;5011270;28;20163;-70
2023/08/30 06:15:11;;;;;;;11.93;6.47;;;14.40;99.90;;;;;;5007239;28;20050;-70
2023/08/30 06:17:37;;;;;;;10.48;6.07;;;14.40;99.90;;;;;;4991136;28;20034;-70
2023/08/30 06:20:03;;;;;;;14.55;6.10;;;14.40;99.90;;;;;;5009884;28;20091;-70
2023/08/30 06:22:28;;;;;;;12.68;6.40;;;14.40;99.90;;;;;;5009568;28;20538;-70
2023/08/30 06:24:54;;;;;;;11.85;6.07;;;14.40;99.90;;;;;;4992044;28;20487;-70
2023/08/30 06:27:20;;;;;;;11.13;6.47;;;14.50;99.90;;;;;;5004063;28;20041;-70
2023/08/30 06:29:46;;;;;;;10.18;6.18;;;14.40;99.90;;;;;;4995419;28;20065;-70
2023/08/30 06:32:11;;;;;;;11.77;6.05;;;14.50;99.90;;;;;;4990355;28;20038;-70
2023/08/30 06:34:37;;;;;;;10.52;5.65;;;14.50;99.90;;;;;;4990298;28;20553;-73
2023/08/30 06:37:03;;;;;;;9.10;5.10;;;14.50;99.90;;;;;;4992174;28;20184;-70
2023/08/30 06:39:36;;;;;;;11.75;5.68;;;14.50;99.90;;;;;;5015649;28;20167;-70
2023/08/30 06:42:03;;;;;;;10.75;5.60;;;14.60;99.90;;;;;;4991555;28;20128;-70
2023/08/30 06:44:29;;;;;;;10.13;5.22;;;14.60;99.90;;;;;;4991507;28;20049;-71
2023/08/30 06:46:58;;;;;;;8.73;5.30;;;14.70;99.90;;;;;;4980209;28;20069;-70
2023/08/30 06:49:24;;;;;;;9.25;5.20;;;14.70;99.90;;;;;;4998624;28;20068;-70
2023/08/30 06:51:50;;;;;;;11.55;5.78;;;14.70;99.90;;;;;;4997714;28;20038;-70
2023/08/30 06:54:16;;;;;;;8.75;5.40;;;14.80;99.90;;;;;;4981108;28;20111;-69
2023/08/30 06:57:00;;;;;;;11.98;6.07;;;14.80;99.90;;;;;;4994369;28;20049;-70
2023/08/30 06:59:26;;;;;;;8.80;4.97;;;14.90;99.90;;;;;;5012854;28;20511;-70
2023/08/30 07:01:52;;;;;;;11.65;5.70;;;14.90;99.90;;;;;;5010045;28;20045;-70
2023/08/30 07:04:18;;;;;;;12.52;6.20;;;15.00;99.90;;;;;;5000954;28;20096;-70
2023/08/30 07:06:44;;;;;;;10.55;5.25;;;15.10;99.90;;;;;;4998263;28;20068;-70
2023/08/30 07:09:11;;;;;;;11.15;5.95;;;15.10;99.90;;;;;;5012203;28;20034;-70
2023/08/30 07:11:37;;;;;;;11.38;6.18;;;15.20;99.90;;;;;;4994112;28;20045;-70
2023/08/30 07:14:04;;;;;;;8.52;5.35;;;15.20;99.90;;;;;;4992233;28;20050;-70
2023/08/30 07:16:31;;;;;;;;;;;15.20;99.90;;;;;;4998839;28;20184;-70
2023/08/30 07:18:57;;;;;;;10.05;5.07;;;15.30;99.90;;;;;;4993434;28;20003;-70
2023/08/30 07:21:23;;;;;;;7.82;4.70;;;15.30;99.90;;;;;;4990006;28;20089;-70
2023/08/30 07:23:49;;;;;;;10.68;5.18;;;15.40;99.90;;;;;;5012239;28;20451;-70
2023/08/30 07:26:32;;;;;;;8.30;5.15;;;15.40;99.90;;;;;;5025841;23;20586;-83
2023/08/30 07:29:10;;;;;;;10.00;5.45;;;15.50;99.90;;;;;;5000127;28;20072;-83
2023/08/30 07:31:35;;;;;;;12.10;5.22;;;15.60;99.90;;;;;;5028994;28;20033;-85
2023/08/30 07:37:07;;;;;;;10.88;5.00;;;15.70;99.90;;;;;;5010287;28;20744;-85
2023/08/30 07:39:40;;;;;;;8.82;5.03;;;15.70;99.90;;;;;;5029835;28;20523;-83
2023/08/30 07:42:06;;;;;;;8.70;4.97;;;15.80;99.90;;;;;;5010061;28;20037;-82
2023/08/30 07:44:32;;;;;;;;;;;15.80;99.90;;;;;;5023368;28;20037;-84
2023/08/30 07:46:58;;;;;;;8.55;4.88;;;15.80;99.90;;;;;;5028226;28;19923;-86
2023/08/30 07:49:26;;;;;;;10.20;4.97;;;15.90;99.90;;;;;;5040131;28;20037;-84
2023/08/30 07:52:01;;;;;;;8.50;4.20;;;15.90;99.90;;;;;;5011604;28;20037;-83
2023/08/30 07:54:28;;;;;;;9.70;4.55;;;16.00;99.90;;;;;;5025041;28;20108;-84
2023/08/30 07:56:54;;;;;;;7.72;4.78;;;16.10;99.90;;;;;;5012617;28;20048;-86
2023/08/30 07:59:19;;;;;;;9.30;4.53;;;16.10;99.90;;;;;;5010917;28;20412;-85
2023/08/30 08:01:46;;;;;;;6.55;3.78;;;16.10;99.90;;;;;;5014151;28;20053;-85
2023/08/30 08:04:15;;;;;;;9.52;4.13;;;16.20;99.90;;;;;;5023320;28;20068;-86
2023/08/30 08:06:40;;;;;;;8.98;4.30;;;16.20;99.90;;;;;;5008380;28;20037;-82
2023/08/30 08:09:09;;;;;;;8.82;3.92;;;16.20;99.90;;;;;;5022880;28;20044;-85
2023/08/30 08:11:39;;;;;;;6.88;4.07;;;16.20;99.90;;;;;;5011757;28;20080;-85
2023/08/30 08:14:05;;;;;;;12.95;5.32;;;16.20;99.90;;;;;;5029680;28;20075;-85
2023/08/30 08:16:40;;;;;;;8.23;4.35;;;16.20;99.90;;;;;;5017962;28;20436;-85
2023/08/30 08:19:17;;;;;;;8.35;4.20;;;16.30;99.90;;;;;;5027630;28;20413;-84
2023/08/30 08:21:49;;;;;;;11.38;5.18;;;16.30;99.90;;;;;;5043487;28;20041;-86
2023/08/30 08:24:17;;;;;;;9.45;4.80;;;16.30;99.90;;;;;;5034341;28;20052;-85
2023/08/30 08:26:46;;;;;;;9.20;5.07;;;16.40;99.90;;;;;;5030979;28;20067;-86
2023/08/30 08:29:11;;;;;;;11.88;5.65;;;16.40;99.90;;;;;;5025906;28;20167;-85
2023/08/30 08:31:40;;;;;;;8.93;4.85;;;16.40;99.90;;;;;;5030712;28;20044;-87
2023/08/30 08:34:13;;;;;;;10.93;5.22;;;16.40;99.90;;;;;;5002057;28;20053;-87
2023/08/30 08:36:40;;;;;;;9.48;5.28;;;16.40;99.90;;;;;;5045252;22;20494;-69
2023/08/30 08:39:06;;;;;;;8.60;5.22;;;16.40;99.90;;;;;;5033845;28;20055;-69
2023/08/30 08:41:39;;;;;;;10.75;5.05;;;16.40;99.90;;;;;;5024492;28;20071;-69
2023/08/30 08:44:06;;;;;;;13.55;5.47;;;16.40;99.90;;;;;;5025390;28;20084;-69
2023/08/30 08:46:34;;;;;;;8.30;4.78;;;16.40;99.90;;;;;;5029842;28;20044;-69
2023/08/30 08:49:05;;;;;;;9.63;5.30;;;16.40;99.90;;;;;;5038715;28;20048;-69
2023/08/30 08:51:34;;;;;;;8.70;5.07;;;16.40;99.90;;;;;;5031459;28;20059;-69
2023/08/30 08:54:03;;;;;;;9.50;4.78;;;16.30;99.90;;;;;;5037808;28;20109;-69
2023/08/30 08:56:35;;;;;;;10.75;5.32;;;16.30;99.90;;;;;;5033218;28;20226;-69
2023/08/30 08:59:01;;;;;;;11.75;4.97;;;16.40;99.90;;;;;;5027043;28;20033;-70
2023/08/30 09:01:28;;;;;;;11.13;5.30;;;16.30;99.90;;;;;;5032049;28;20048;-69
2023/08/30 09:03:54;;;;;;;10.40;5.15;;;16.30;99.90;;;;;;5032650;28;20088;-70
2023/08/30 09:06:20;;;;;;;;;;;16.40;99.90;;;;;;5037783;28;20136;-70
2023/08/30 09:08:46;;;;;;;9.60;5.45;;;16.40;99.90;;;;;;5027235;28;19921;-69
2023/08/30 09:11:12;;;;;;;9.35;5.80;;;16.40;99.90;;;;;;5027068;28;20043;-69
2023/08/30 09:13:37;;;;;;;9.48;5.78;;;16.40;99.90;;;;;;5024310;28;20128;-68
2023/08/30 09:16:12;;;;;;;9.70;5.25;;;16.30;99.90;;;;;;5028308;28;20041;-69
2023/08/30 09:18:37;;;;;;;10.73;5.28;;;16.40;99.90;;;;;;5024339;28;20123;-70
2023/08/30 09:21:07;;;;;;;9.30;5.03;;;16.40;99.90;;;;;;5026740;28;20344;-70
2023/08/30 09:23:34;;;;;;;11.40;5.50;;;16.40;99.90;;;;;;5029661;28;20223;-69
2023/08/30 09:25:59;;;;;;;;;;;16.40;99.90;;;;;;5036162;28;20037;-69
2023/08/30 09:28:26;;;;;;;7.78;4.63;;;16.40;99.90;;;;;;5038093;28;19924;-68
2023/08/30 09:30:52;;;;;;;7.38;4.22;;;16.40;99.90;;;;;;5016042;28;20037;-69
2023/08/30 09:33:32;;;;;;;12.30;4.80;;;16.40;99.90;;;;;;5027770;28;20033;-69
2023/08/30 09:35:58;;;;;;;9.82;5.72;;;16.40;99.90;;;;;;5025821;28;20045;-69
2023/08/30 09:38:25;;;;;;;15.30;8.32;;;16.30;99.90;;;;;;5026130;28;20040;-69
2023/08/30 09:40:51;;;;;;;15.45;8.40;;;16.30;99.90;;;;;;5027014;28;20106;-69
2023/08/30 09:43:21;;;;;;;8.23;4.97;;;16.40;99.90;;;;;;5040886;28;20049;-69
2023/08/30 09:45:47;;;;;;;9.40;4.32;;;16.40;99.90;;;;;;5045110;28;20137;-69
2023/08/30 09:48:14;;;;;;;;;;;16.30;99.90;;;;;;5024022;28;20045;-69
2023/08/30 09:50:44;;;;;;;6.95;4.00;;;16.20;99.90;;;;;;5037206;28;19964;-70
2023/08/30 09:53:11;;;;;;;7.55;4.07;;;16.20;99.90;;;;;;5025685;28;20418;-69
2023/08/30 09:55:37;;;;;;;7.07;4.43;;;16.10;99.90;;;;;;5027893;28;20148;-70
2023/08/30 09:58:04;;;;;;;7.32;4.35;;;16.10;99.90;;;;;;5025145;28;20380;-69
2023/08/30 10:00:36;;;;;;;9.93;4.22;;;16.00;99.90;;;;;;5054770;28;20175;-73
2023/08/30 10:03:02;;;;;;;10.15;4.13;;;16.10;99.90;;;;;;5021099;28;20056;-69
2023/08/30 10:05:29;;;;;;;7.38;3.70;;;16.00;99.90;;;;;;5024964;28;20048;-69
2023/08/30 10:07:56;;;;;;;6.93;4.03;;;16.00;99.90;;;;;;5048820;28;20037;-69
2023/08/30 10:10:24;;;;;;;10.57;4.30;;;16.10;99.90;;;;;;5028558;28;20076;-69
2023/08/30 10:12:50;;;;;;;6.85;3.80;;;16.00;99.90;;;;;;5038624;28;20033;-69
2023/08/30 10:15:16;;;;;;;10.43;4.15;;;16.10;99.90;;;;;;5017831;28;20555;-69
2023/08/30 10:17:45;;;;;;;7.00;3.70;;;16.10;99.90;;;;;;5043438;28;20075;-70
2023/08/30 10:20:14;;;;;;;7.68;3.97;;;16.10;99.90;;;;;;5031599;28;20116;-69
2023/08/30 10:22:41;;;;;;;6.85;3.65;;;16.10;99.90;;;;;;5016887;28;20363;-69
2023/08/30 10:25:11;;;;;;;5.85;3.65;;;16.20;99.90;;;;;;5023387;28;20369;-69
2023/08/30 10:27:42;;;;;;;7.85;3.60;;;16.20;99.90;;;;;;5052469;28;20043;-69
2023/08/30 10:30:10;;;;;;;9.20;4.38;;;16.30;99.90;;;;;;5030658;28;20352;-69
2023/08/30 10:32:44;;;;;;;7.32;4.00;;;16.30;99.90;;;;;;5033787;28;20409;-69
2023/08/30 10:35:15;;;;;;;6.50;3.97;;;16.40;99.90;;;;;;5033408;28;20506;-68
2023/08/30 10:37:42;;;;;;;6.32;3.40;;;16.40;99.90;;;;;;5024124;28;20068;-69
2023/08/30 10:40:08;;;;;;;5.75;2.97;;;16.40;99.90;;;;;;5023426;28;20037;-69
2023/08/30 10:42:34;;;;;;;6.18;3.30;;;16.50;99.90;;;;;;5027954;28;20039;-69
2023/08/30 10:45:07;;;;;;;5.70;3.28;;;16.50;99.90;;;;;;5028766;28;20451;-69
2023/08/30 10:47:37;;;;;;;5.88;3.05;;;16.50;99.90;;;;;;5033261;28;20514;-69
2023/08/30 10:50:11;;;;;;;4.20;2.90;;;16.60;99.90;;;;;;5031949;28;20110;-69
2023/08/30 10:52:36;;;;;;;4.57;2.80;;;16.60;99.90;;;;;;5037001;28;20041;-69
2023/08/30 10:55:15;;;;;;;4.28;2.08;;;16.60;99.90;;;;;;5028449;28;20147;-69
2023/08/30 10:57:45;;;;;;;10.18;2.70;;;16.70;99.90;;;;;;5017805;28;20056;-69
2023/08/30 11:00:20;;;;;;;4.97;2.45;;;16.70;99.90;;;;;;5043561;28;20033;-69
2023/08/30 11:02:48;;;;;;;4.32;2.35;;;16.70;99.90;;;;;;5034085;28;20049;-69
2023/08/30 11:05:19;;;;;;;4.70;2.65;;;16.80;99.90;;;;;;5028304;28;20049;-69
2023/08/30 11:07:45;;;;;;;4.53;2.10;;;16.80;99.90;;;;;;5015906;28;20513;-69
2023/08/30 11:10:12;;;;;;;4.75;2.50;;;16.80;99.90;;;;;;5047093;28;20069;-69
2023/08/30 11:12:44;;;;;;;4.20;2.10;;;16.80;99.90;;;;;;5041643;28;20155;-69
2023/08/30 11:15:11;;;;;;;5.53;2.50;;;16.90;99.90;;;;;;5032147;28;20076;-69
2023/08/30 11:17:37;;;;;;;4.80;2.88;;;16.90;99.90;;;;;;5031516;28;20157;-69
2023/08/30 11:20:13;;;;;;;5.82;3.20;;;16.90;99.90;;;;;;5008862;28;20199;-69
2023/08/30 11:22:44;;;;;;;5.35;3.40;;;16.90;99.90;;;;;;5026054;28;20575;-69
2023/08/30 11:25:11;;;;;;;6.22;3.40;;;16.90;99.90;;;;;;5030998;28;20033;-69
2023/08/30 11:27:40;;;;;;;7.68;3.22;;;16.90;99.90;;;;;;5034010;28;20055;-69
2023/08/30 11:30:08;;;;;;;5.53;2.90;;;16.80;99.90;;;;;;5049350;28;20226;-69
2023/08/30 11:32:38;;;;;;;5.70;3.50;;;16.80;99.90;;;;;;5025054;28;20397;-69
2023/08/30 11:35:05;;;;;;;6.35;2.92;;;16.80;99.90;;;;;;5029038;28;20045;-70
2023/08/30 11:37:31;;;;;;;7.60;2.70;;;16.70;99.90;;;;;;5031835;28;20049;-69
2023/08/30 11:39:58;;;;;;;5.13;3.03;;;16.80;99.90;;;;;;5026429;28;20079;-69
2023/08/30 11:42:24;;;;;;;5.70;2.92;;;16.70;99.90;;;;;;5034077;28;20317;-69
2023/08/30 11:44:51;;;;;;;4.88;2.97;;;16.70;99.90;;;;;;5024643;28;20051;-69
2023/08/30 11:47:24;;;;;;;6.10;3.28;;;16.70;99.90;;;;;;5047504;28;20398;-69
2023/08/30 11:49:52;;;;;;;5.88;3.03;;;16.70;99.90;;;;;;5026891;28;20064;-69
2023/08/30 11:52:18;;;;;;;4.55;2.63;;;16.70;99.90;;;;;;5032334;28;20033;-69
2023/08/30 11:54:44;;;;;;;6.18;2.90;;;16.70;99.90;;;;;;5031996;28;20187;-69
2023/08/30 11:57:11;;;;;;;6.13;3.13;;;16.80;99.90;;;;;;5033017;28;20056;-69
2023/08/30 11:59:36;;;;;;;5.68;3.42;;;16.70;99.90;;;;;;5033378;28;20143;-70
2023/08/30 12:02:03;;;;;;;6.78;3.33;;;16.70;99.90;;;;;;5018364;28;20236;-69
2023/08/30 12:04:30;;;;;;;4.85;2.80;;;16.70;99.90;;;;;;5033233;28;20072;-69
2023/08/30 12:06:56;;;;;;;4.40;2.65;;;16.60;99.90;;;;;;5022949;28;20086;-68
2023/08/30 12:09:22;;;;;;;;;;;16.60;99.90;;;;;;5023328;28;20058;-69
2023/08/30 12:11:49;;;;;;;6.20;3.15;;;16.60;99.90;;;;;;5028077;28;19921;-69
2023/08/30 12:14:14;;;;;;;4.95;2.60;;;16.60;99.90;;;;;;5052988;28;20128;-69
2023/08/30 12:16:41;;;;;;;5.95;3.50;;;16.60;99.90;;;;;;5044920;28;20179;-69
2023/08/30 12:19:11;;;;;;;7.13;3.30;;;16.50;99.90;;;;;;5031323;28;20139;-70
2023/08/30 12:21:43;;;;;;;6.63;3.63;;;16.50;99.90;;;;;;5010552;28;20044;-69
2023/08/30 12:24:10;;;;;;;5.10;3.13;;;16.50;99.90;;;;;;5025846;28;20040;-69
2023/08/30 12:26:38;;;;;;;5.75;3.60;;;16.40;99.90;;;;;;5042239;28;20071;-68
2023/08/30 12:29:05;;;;;;;7.55;3.40;;;16.40;99.90;;;;;;5042454;28;20055;-69
2023/08/30 12:31:32;;;;;;;7.18;4.13;;;16.40;99.90;;;;;;5027078;28;20058;-69
2023/08/30 12:33:57;;;;;;;6.60;3.83;;;16.40;99.90;;;;;;5022056;28;20140;-69
2023/08/30 12:36:23;;;;;;;6.90;3.72;;;16.40;99.90;;;;;;5045090;28;20171;-69
2023/08/30 12:38:49;;;;;;;6.13;3.50;;;16.30;99.90;;;;;;5031266;28;20044;-69
2023/08/30 12:41:15;;;;;;;9.95;4.50;;;16.30;99.90;;;;;;5028727;28;20056;-69
2023/08/30 12:43:40;;;;;;;;;;;16.20;99.90;;;;;;5029255;28;20045;-69
2023/08/30 12:46:07;;;;;;;5.43;3.63;;;16.20;99.90;;;;;;5026541;28;19920;-69
2023/08/30 12:48:32;;;;;;;;;;;16.10;99.90;;;;;;5026834;28;20056;-69
2023/08/30 12:50:58;;;;;;;6.35;3.75;;;16.00;99.90;;;;;;5027458;28;19940;-69